Time;durP1;ratioP1;P1;durP2;ratioP2;P2;SDS_P1;SDS_P2;PMS_P1;PMS_P2;Temp;Humidity;BMP_temperature;BMP_pressure;BME280_temperature;BME280_humidity;BME280_pressure;Samples;Min_cycle;Max_cycle;Signal;HPM_P1;HPM_P2
2023/02/01 00:01:45;;;;;;;20.67;11.53;;;6.60;99.90;;;;;;5036852;28;20272;-79
2023/02/01 00:04:12;;;;;;;17.63;10.70;;;6.60;99.90;;;;;;5030082;28;20229;-79
2023/02/01 00:06:38;;;;;;;22.33;11.47;;;6.70;99.90;;;;;;5036372;28;20190;-79
2023/02/01 00:09:04;;;;;;;14.80;9.50;;;6.70;99.90;;;;;;5031265;28;20464;-79
2023/02/01 00:11:29;;;;;;;20.60;9.90;;;6.70;99.90;;;;;;5017146;28;20652;-77
2023/02/01 00:13:56;;;;;;;14.27;8.70;;;6.70;99.90;;;;;;5037503;28;20802;-78
2023/02/01 00:16:25;;;;;;;11.33;8.17;;;6.60;99.90;;;;;;5038294;28;20265;-79
2023/02/01 00:18:56;;;;;;;15.53;7.80;;;6.60;99.90;;;;;;5019109;28;20413;-79
2023/02/01 00:21:22;;;;;;;14.20;7.83;;;6.80;99.90;;;;;;5021990;28;20417;-79
2023/02/01 00:23:48;;;;;;;19.20;7.47;;;6.80;99.90;;;;;;5040448;28;20423;-79
2023/02/01 00:26:48;;;;;;;13.67;6.97;;;6.50;99.90;;;;;;5037596;28;20463;-79
2023/02/01 00:29:19;;;;;;;12.50;6.00;;;6.60;99.90;;;;;;4998940;28;20992;-79
2023/02/01 00:31:46;;;;;;;12.40;5.80;;;6.60;99.90;;;;;;5028484;28;20938;-78
2023/02/01 00:34:13;;;;;;;12.57;6.03;;;6.70;99.90;;;;;;5034646;28;21158;-79
2023/02/01 00:36:39;;;;;;;9.50;5.97;;;6.60;99.90;;;;;;5037836;28;20475;-79
2023/02/01 00:39:05;;;;;;;15.60;6.57;;;6.50;99.90;;;;;;5038183;28;20422;-79
2023/02/01 00:41:31;;;;;;;10.77;5.30;;;6.50;99.90;;;;;;5031600;28;20428;-79
2023/02/01 00:43:56;;;;;;;15.60;5.63;;;6.60;99.90;;;;;;5033089;28;20206;-79
2023/02/01 00:46:22;;;;;;;12.57;5.50;;;6.60;99.90;;;;;;5046723;28;20208;-79
2023/02/01 00:48:48;;;;;;;12.87;5.13;;;6.60;99.90;;;;;;5003458;28;20625;-79
2023/02/01 00:51:20;;;;;;;11.87;5.07;;;6.50;99.90;;;;;;5029441;28;20289;-79
2023/02/01 00:53:46;;;;;;;14.53;5.00;;;6.60;99.90;;;;;;5034727;28;20794;-79
2023/02/01 00:56:12;;;;;;;9.97;4.70;;;6.70;99.90;;;;;;5034793;28;20983;-79
2023/02/01 00:58:38;;;;;;;8.93;4.60;;;6.80;99.90;;;;;;5040249;28;20273;-79
2023/02/01 01:01:20;;;;;;;14.67;4.87;;;6.40;99.90;;;;;;5015063;28;20337;-79
2023/02/01 01:03:57;;;;;;;8.13;4.87;;;6.40;99.90;;;;;;5037333;28;20557;-79
2023/02/01 01:06:28;;;;;;;12.13;4.77;;;6.50;99.90;;;;;;4994555;28;20467;-79
2023/02/01 01:08:56;;;;;;;10.40;4.80;;;6.40;99.90;;;;;;5011940;28;20876;-79
2023/02/01 01:11:24;;;;;;;20.50;4.70;;;6.60;99.90;;;;;;4994294;28;20442;-79
2023/02/01 01:13:52;;;;;;;9.93;4.03;;;6.50;99.90;;;;;;5011599;28;20422;-79
2023/02/01 01:16:19;;;;;;;9.23;4.20;;;6.70;99.90;;;;;;5011940;28;20414;-79
2023/02/01 01:18:46;;;;;;;19.83;5.50;;;6.70;99.90;;;;;;4994244;28;20406;-80
2023/02/01 01:21:13;;;;;;;8.90;5.10;;;6.60;99.90;;;;;;5011925;28;20751;-78
2023/02/01 01:23:39;;;;;;;16.07;5.27;;;6.50;99.90;;;;;;5011630;28;20425;-79
2023/02/01 01:26:08;;;;;;;16.73;5.70;;;6.50;99.90;;;;;;5010476;28;20814;-79
2023/02/01 01:28:34;;;;;;;11.10;5.20;;;6.50;99.90;;;;;;5011498;28;20495;-79
2023/02/01 01:30:59;;;;;;;14.10;5.60;;;6.60;99.90;;;;;;4993988;28;20509;-79
2023/02/01 01:33:25;;;;;;;18.20;5.70;;;6.50;99.90;;;;;;5011439;28;20787;-79
2023/02/01 01:35:50;;;;;;;12.10;5.90;;;6.60;99.90;;;;;;5010729;28;20696;-78
2023/02/01 01:38:16;;;;;;;11.90;6.00;;;6.60;99.90;;;;;;5011142;28;20175;-78
2023/02/01 01:40:46;;;;;;;12.80;5.93;;;6.50;99.90;;;;;;5031411;28;20640;-79
2023/02/01 01:43:17;;;;;;;11.97;5.67;;;6.60;99.90;;;;;;5031067;28;20210;-80
2023/02/01 01:45:43;;;;;;;15.40;5.57;;;6.60;99.90;;;;;;5012279;28;20848;-78
2023/02/01 01:48:15;;;;;;;12.30;6.27;;;6.70;99.90;;;;;;5031061;28;20409;-78
2023/02/01 01:50:48;;;;;;;11.83;5.40;;;6.70;99.90;;;;;;5030827;28;20413;-77
2023/02/01 01:53:19;;;;;;;15.20;7.23;;;6.40;99.90;;;;;;5025656;28;20913;-78
2023/02/01 01:55:47;;;;;;;15.33;6.20;;;6.60;99.90;;;;;;5030894;28;20436;-78
2023/02/01 01:58:17;;;;;;;14.60;6.27;;;6.50;99.90;;;;;;5013206;28;20424;-78
2023/02/01 02:00:44;;;;;;;12.63;6.40;;;6.50;99.90;;;;;;5030748;28;20405;-79
2023/02/01 02:03:19;;;;;;;11.87;6.23;;;6.60;99.90;;;;;;5013065;28;20487;-78
2023/02/01 02:05:47;;;;;;;15.23;5.50;;;6.60;99.90;;;;;;5029887;28;20532;-80
2023/02/01 02:08:14;;;;;;;18.60;6.50;;;6.60;99.90;;;;;;5029918;28;20759;-78
2023/02/01 02:11:01;;;;;;;12.30;6.40;;;6.70;99.90;;;;;;5030415;28;20810;-78
2023/02/01 02:13:30;;;;;;;10.80;6.47;;;6.50;99.90;;;;;;5012785;28;20828;-78
2023/02/01 02:15:58;;;;;;;14.53;5.50;;;6.50;99.90;;;;;;5030483;28;20854;-78
2023/02/01 02:18:44;;;;;;;10.47;6.40;;;6.40;99.90;;;;;;5030403;28;20417;-78
2023/02/01 02:21:23;;;;;;;9.53;5.90;;;6.50;99.90;;;;;;5030495;28;20492;-77
2023/02/01 02:24:24;;;;;;;10.13;5.70;;;6.60;99.90;;;;;;5012552;28;20436;-79
2023/02/01 02:27:05;;;;;;;13.47;7.13;;;6.50;99.90;;;;;;4999281;28;20433;-78
2023/02/01 02:29:34;;;;;;;13.70;6.27;;;6.50;99.90;;;;;;4996143;28;20496;-78
2023/02/01 02:32:11;;;;;;;11.03;5.30;;;6.50;99.90;;;;;;5030153;28;20401;-78
2023/02/01 02:34:55;;;;;;;12.23;5.23;;;6.40;99.90;;;;;;5030057;28;20459;-78
2023/02/01 02:37:37;;;;;;;10.23;4.40;;;6.60;99.90;;;;;;5029931;28;20419;-78
2023/02/01 02:40:41;;;;;;;12.60;4.97;;;6.50;99.90;;;;;;5012309;28;20417;-78
2023/02/01 02:49:34;;;;;;;11.83;4.50;;;6.70;99.90;;;;;;5029732;28;20445;-79
2023/02/01 02:55:03;;;;;;;10.57;4.13;;;6.40;99.90;;;;;;4991595;28;20438;-78
2023/02/01 03:05:57;;;;;;;14.03;4.20;;;6.30;99.90;;;;;;5009802;28;20422;-78
2023/02/01 03:08:26;;;;;;;8.50;3.70;;;6.30;99.90;;;;;;4999406;28;20460;-78
2023/02/01 03:11:14;;;;;;;9.20;3.90;;;6.50;99.90;;;;;;5008337;28;20285;-79
2023/02/01 03:13:45;;;;;;;7.27;3.90;;;6.40;99.90;;;;;;5010098;28;20465;-79
2023/02/01 03:16:22;;;;;;;11.30;3.80;;;6.40;99.90;;;;;;4992419;28;20870;-77
2023/02/01 03:18:53;;;;;;;8.70;4.40;;;6.40;99.90;;;;;;4992066;28;20428;-78
2023/02/01 03:21:30;;;;;;;12.73;3.93;;;6.50;99.90;;;;;;5009425;28;20484;-78
2023/02/01 03:24:01;;;;;;;9.63;3.97;;;6.40;99.90;;;;;;5008338;28;20438;-79
2023/02/01 03:26:30;;;;;;;6.63;2.70;;;6.20;99.90;;;;;;5010177;28;21164;-78
2023/02/01 03:29:02;;;;;;;15.73;4.60;;;6.30;99.90;;;;;;5008274;28;20465;-79
2023/02/01 03:31:28;;;;;;;14.67;4.23;;;6.20;99.90;;;;;;5008070;28;20417;-79
2023/02/01 03:33:54;;;;;;;8.10;4.07;;;6.30;99.90;;;;;;5008009;28;20434;-78
2023/02/01 03:36:51;;;;;;;11.77;3.43;;;6.30;99.90;;;;;;4991914;28;20414;-79
2023/02/01 03:39:26;;;;;;;11.77;4.37;;;6.00;99.90;;;;;;5000279;28;20194;-78
2023/02/01 03:41:57;;;;;;;9.60;4.50;;;6.20;99.90;;;;;;5029196;28;20456;-78
2023/02/01 03:44:34;;;;;;;11.30;3.50;;;6.10;99.90;;;;;;4995045;28;20487;-78
2023/02/01 03:47:14;;;;;;;10.07;3.93;;;6.30;99.90;;;;;;5011600;28;20438;-79
2023/02/01 03:49:54;;;;;;;9.07;3.50;;;6.10;99.90;;;;;;5029004;28;20475;-78
2023/02/01 03:52:44;;;;;;;9.83;3.70;;;6.30;99.90;;;;;;5026862;28;20445;-78
2023/02/01 03:55:14;;;;;;;6.70;3.40;;;6.30;99.90;;;;;;5009490;28;20448;-78
2023/02/01 03:57:45;;;;;;;8.40;4.10;;;6.40;99.90;;;;;;5029214;28;20413;-78
2023/02/01 04:00:22;;;;;;;17.13;4.50;;;6.50;99.90;;;;;;5028909;28;20417;-77
2023/02/01 04:02:48;;;;;;;17.37;3.83;;;6.20;99.90;;;;;;5028866;28;20413;-78
2023/02/01 04:05:14;;;;;;;10.10;3.20;;;6.40;99.90;;;;;;5027992;28;20457;-78
2023/02/01 04:07:40;;;;;;;10.37;4.00;;;6.40;99.90;;;;;;5029118;28;20420;-78
2023/02/01 04:10:06;;;;;;;10.77;3.57;;;6.10;99.90;;;;;;5031477;28;20202;-78
2023/02/01 04:12:32;;;;;;;8.60;3.77;;;6.20;99.90;;;;;;5032954;28;20265;-77
2023/02/01 04:14:58;;;;;;;10.73;3.60;;;6.00;99.90;;;;;;5032833;28;20862;-78
2023/02/01 04:17:24;;;;;;;8.70;3.70;;;6.30;99.90;;;;;;5032767;28;20670;-78
2023/02/01 04:19:49;;;;;;;14.67;3.80;;;6.00;99.90;;;;;;5015035;28;20218;-79
2023/02/01 04:22:15;;;;;;;16.77;5.00;;;6.20;99.90;;;;;;5032803;28;20449;-79
2023/02/01 04:24:41;;;;;;;11.43;3.93;;;6.10;99.90;;;;;;5015477;28;20902;-78
2023/02/01 04:27:07;;;;;;;9.43;3.70;;;6.30;99.90;;;;;;5032696;28;20508;-78
2023/02/01 04:29:32;;;;;;;16.23;4.10;;;6.00;99.90;;;;;;5015111;28;20241;-78
2023/02/01 04:31:58;;;;;;;11.10;4.67;;;6.20;99.90;;;;;;5015380;28;20232;-79
2023/02/01 04:34:24;;;;;;;12.90;4.10;;;6.10;99.90;;;;;;5014854;28;20683;-78
2023/02/01 04:36:50;;;;;;;9.87;3.80;;;6.20;99.90;;;;;;4998327;28;20265;-79
2023/02/01 04:39:16;;;;;;;18.07;4.10;;;6.40;99.90;;;;;;5014837;28;20452;-79
2023/02/01 04:41:42;;;;;;;10.60;3.70;;;6.30;99.90;;;;;;5032572;28;20448;-78
2023/02/01 04:44:14;;;;;;;8.80;4.07;;;6.20;99.90;;;;;;5032460;28;20205;-78
2023/02/01 04:46:40;;;;;;;11.63;3.57;;;6.40;99.90;;;;;;5032978;28;20174;-78
2023/02/01 04:49:05;;;;;;;11.07;4.10;;;6.20;99.90;;;;;;5015492;28;20502;-76
2023/02/01 04:51:31;;;;;;;11.43;4.50;;;6.30;99.90;;;;;;5021532;28;20451;-78
2023/02/01 04:53:56;;;;;;;14.63;4.57;;;6.30;99.90;;;;;;5036306;28;20681;-77
2023/02/01 04:56:22;;;;;;;6.60;3.53;;;6.50;99.90;;;;;;5034189;28;20585;-78
2023/02/01 04:58:48;;;;;;;18.70;4.10;;;6.50;99.90;;;;;;5031839;28;20377;-76
2023/02/01 05:01:13;;;;;;;18.67;4.70;;;6.40;99.90;;;;;;5032439;28;20183;-78
2023/02/01 05:03:39;;;;;;;11.93;3.73;;;6.30;99.90;;;;;;5030936;28;20182;-79
2023/02/01 05:06:05;;;;;;;12.50;3.77;;;6.20;99.90;;;;;;5032199;28;20182;-79
2023/02/01 05:08:31;;;;;;;18.57;4.47;;;6.20;99.90;;;;;;5031598;28;20202;-78
2023/02/01 05:10:58;;;;;;;12.37;4.23;;;6.30;99.90;;;;;;5032423;28;20174;-78
2023/02/01 05:14:06;;;;;;;13.37;4.10;;;6.30;99.90;;;;;;5013875;28;20987;-79
2023/02/01 05:16:13;;;;;;;13.83;4.40;;;6.20;99.90;;;;;;5023661;28;20436;-78
2023/02/01 05:18:38;;;;;;;15.80;3.50;;;6.30;99.90;;;;;;5013816;28;20661;-78
2023/02/01 05:21:04;;;;;;;11.10;4.53;;;6.30;99.90;;;;;;5031373;28;20673;-78
2023/02/01 05:23:30;;;;;;;14.30;4.20;;;6.40;99.90;;;;;;5031495;28;20205;-78
2023/02/01 05:26:00;;;;;;;12.30;4.60;;;6.30;99.90;;;;;;5013928;28;20190;-79
2023/02/01 05:28:27;;;;;;;13.13;4.70;;;6.20;99.90;;;;;;5013439;28;20202;-79
2023/02/01 05:30:52;;;;;;;15.83;5.00;;;6.40;99.90;;;;;;5031674;28;20420;-78
2023/02/01 05:33:18;;;;;;;15.70;4.40;;;6.40;99.90;;;;;;5030986;28;20842;-79
2023/02/01 05:35:43;;;;;;;13.23;3.80;;;6.10;99.90;;;;;;5031384;28;20286;-78
2023/02/01 05:38:09;;;;;;;9.40;3.13;;;6.10;99.90;;;;;;5013580;28;20205;-78
2023/02/01 05:40:35;;;;;;;16.13;4.70;;;6.40;99.90;;;;;;5013689;28;20265;-78
2023/02/01 05:43:00;;;;;;;27.17;4.73;;;6.30;99.90;;;;;;5012931;28;20170;-78
2023/02/01 05:45:26;;;;;;;12.20;4.00;;;6.30;99.90;;;;;;5031175;28;20229;-78
2023/02/01 05:47:51;;;;;;;18.27;3.90;;;6.30;99.90;;;;;;5031042;28;20274;-78
2023/02/01 05:50:17;;;;;;;8.20;3.47;;;6.40;99.90;;;;;;5011305;28;20218;-77
2023/02/01 05:52:43;;;;;;;14.00;3.80;;;6.50;99.90;;;;;;5023505;28;20194;-77
2023/02/01 05:55:09;;;;;;;13.70;4.00;;;6.20;99.90;;;;;;5011557;28;20205;-77
2023/02/01 05:57:34;;;;;;;7.87;3.47;;;6.30;99.90;;;;;;5029588;28;20502;-78
2023/02/01 06:00:00;;;;;;;10.50;3.30;;;6.50;99.90;;;;;;5007074;28;20466;-77
2023/02/01 06:02:26;;;;;;;16.40;4.30;;;6.30;99.90;;;;;;5011294;28;20258;-77
2023/02/01 06:04:52;;;;;;;11.43;3.60;;;6.50;99.90;;;;;;5036639;28;20225;-77
2023/02/01 06:07:17;;;;;;;19.97;4.80;;;6.50;99.90;;;;;;5033417;28;20192;-78
2023/02/01 06:09:43;;;;;;;11.23;4.10;;;6.30;99.90;;;;;;5050350;28;20205;-78
2023/02/01 06:12:09;;;;;;;12.37;4.43;;;6.30;99.90;;;;;;5050630;28;20184;-78
2023/02/01 06:14:34;;;;;;;10.63;3.87;;;6.20;99.90;;;;;;5032350;28;20197;-77
2023/02/01 06:17:00;;;;;;;10.50;4.17;;;6.20;99.90;;;;;;5050313;28;20181;-78
2023/02/01 06:19:26;;;;;;;14.13;3.90;;;6.20;99.90;;;;;;5015889;28;20185;-78
2023/02/01 06:21:51;;;;;;;17.27;5.03;;;6.30;99.90;;;;;;5029817;28;20227;-78
2023/02/01 06:24:17;;;;;;;18.30;4.00;;;6.30;99.90;;;;;;5026724;28;20288;-78
2023/02/01 06:26:43;;;;;;;14.23;4.57;;;6.40;99.90;;;;;;5050450;28;20166;-78
2023/02/01 06:29:12;;;;;;;11.80;4.17;;;6.20;99.90;;;;;;5036884;28;20206;-79
2023/02/01 06:31:38;;;;;;;15.20;4.00;;;6.10;99.90;;;;;;5029663;28;20356;-78
2023/02/01 06:34:03;;;;;;;9.30;3.77;;;6.30;99.90;;;;;;5029460;28;20437;-78
2023/02/01 06:36:29;;;;;;;12.87;3.97;;;6.40;99.90;;;;;;5030457;28;20305;-78
2023/02/01 06:38:56;;;;;;;11.70;4.20;;;6.20;99.90;;;;;;5029925;28;20177;-77
2023/02/01 06:41:22;;;;;;;12.53;4.30;;;6.20;99.90;;;;;;5029968;28;20420;-78
2023/02/01 06:43:49;;;;;;;10.80;4.20;;;6.30;99.90;;;;;;5029802;28;20417;-78
2023/02/01 06:46:15;;;;;;;12.00;3.70;;;6.10;99.90;;;;;;5030099;28;20566;-79
2023/02/01 06:48:41;;;;;;;10.17;3.73;;;6.40;99.90;;;;;;5027030;28;21035;-78
2023/02/01 06:51:18;;;;;;;13.17;4.43;;;6.30;99.90;;;;;;5009906;28;20425;-77
2023/02/01 06:53:43;;;;;;;11.33;4.17;;;6.30;99.90;;;;;;5006662;28;20455;-77
2023/02/01 06:56:09;;;;;;;16.63;4.80;;;6.30;99.90;;;;;;4992398;28;20468;-77
2023/02/01 06:58:35;;;;;;;15.07;4.23;;;6.10;99.90;;;;;;4992450;28;20179;-79
2023/02/01 07:01:09;;;;;;;11.07;4.57;;;6.20;99.90;;;;;;5009928;28;20262;-78
2023/02/01 07:03:35;;;;;;;7.97;3.70;;;6.30;99.90;;;;;;4992048;28;20419;-78
2023/02/01 07:06:01;;;;;;;11.90;3.93;;;6.10;99.90;;;;;;4993460;28;20765;-78
2023/02/01 07:08:28;;;;;;;13.43;4.87;;;6.30;99.90;;;;;;5026210;28;20419;-78
2023/02/01 07:10:53;;;;;;;13.00;3.63;;;6.30;99.90;;;;;;5012002;28;20265;-78
2023/02/01 07:13:19;;;;;;;14.93;3.60;;;6.10;99.90;;;;;;4996589;28;20756;-78
2023/02/01 07:15:47;;;;;;;11.20;3.80;;;6.30;99.90;;;;;;5037317;28;20216;-79
2023/02/01 07:18:14;;;;;;;9.00;4.23;;;6.20;99.90;;;;;;5016686;28;20580;-78
2023/02/01 07:20:40;;;;;;;10.20;4.03;;;6.30;99.90;;;;;;5034442;28;20436;-78
2023/02/01 07:23:06;;;;;;;13.47;4.43;;;6.50;99.90;;;;;;5043964;28;20451;-78
2023/02/01 07:25:31;;;;;;;10.00;3.70;;;6.40;99.90;;;;;;5031341;28;20460;-78
2023/02/01 07:27:57;;;;;;;16.33;4.47;;;6.20;99.90;;;;;;5049149;28;20176;-78
2023/02/01 07:30:23;;;;;;;10.80;3.80;;;6.20;99.90;;;;;;5048750;28;20289;-78
2023/02/01 07:32:48;;;;;;;15.10;3.93;;;6.20;99.90;;;;;;5031155;28;20416;-77
2023/02/01 07:35:14;;;;;;;21.17;4.73;;;6.30;99.90;;;;;;5031480;28;20558;-79
2023/02/01 07:37:40;;;;;;;12.77;4.10;;;6.40;99.90;;;;;;5030809;28;20587;-79
2023/02/01 07:40:06;;;;;;;12.67;4.10;;;6.30;99.90;;;;;;5003604;28;20186;-78
2023/02/01 07:42:32;;;;;;;10.60;4.10;;;6.40;99.90;;;;;;5014649;28;20422;-78
2023/02/01 07:44:57;;;;;;;17.23;4.07;;;6.40;99.90;;;;;;5022002;28;20433;-79
2023/02/01 07:47:23;;;;;;;17.47;5.80;;;6.30;99.90;;;;;;5019895;28;20182;-79
2023/02/01 07:49:49;;;;;;;11.90;3.87;;;6.40;99.90;;;;;;5039139;28;20196;-79
2023/02/01 07:52:17;;;;;;;14.17;4.73;;;6.30;99.90;;;;;;5018922;28;20187;-78
2023/02/01 07:54:43;;;;;;;15.80;5.57;;;6.30;99.90;;;;;;5038873;28;20215;-79
2023/02/01 07:57:11;;;;;;;16.53;4.63;;;6.40;99.90;;;;;;5034668;28;20925;-79
2023/02/01 08:01:19;;;;;;;15.03;4.63;;;6.40;99.90;;;;;;5019121;28;20197;-78
2023/02/01 08:02:22;;;;;;;12.80;5.33;;;6.40;99.90;;;;;;5012784;28;20425;-78
2023/02/01 08:04:48;;;;;;;11.63;4.60;;;6.60;99.90;;;;;;5037103;28;20796;-79
2023/02/01 08:07:13;;;;;;;20.80;5.13;;;6.40;99.90;;;;;;5037728;28;20659;-80
2023/02/01 08:09:39;;;;;;;14.03;5.17;;;6.40;99.90;;;;;;5003870;28;20231;-78
2023/02/01 08:12:05;;;;;;;13.37;4.70;;;6.50;99.90;;;;;;5019704;28;20174;-79
2023/02/01 08:14:30;;;;;;;10.43;4.33;;;6.40;99.90;;;;;;5019964;28;20200;-78
2023/02/01 08:16:56;;;;;;;13.13;4.93;;;6.40;99.90;;;;;;5039056;28;20184;-79
2023/02/01 08:19:22;;;;;;;15.37;4.93;;;6.40;99.90;;;;;;5028638;28;20183;-78
2023/02/01 08:21:48;;;;;;;11.10;4.90;;;6.50;99.90;;;;;;5028569;28;20775;-79
2023/02/01 08:24:14;;;;;;;12.77;6.00;;;6.50;99.90;;;;;;5013370;28;20288;-78
2023/02/01 08:26:40;;;;;;;15.27;5.50;;;6.40;99.90;;;;;;5028744;28;20949;-78
2023/02/01 08:29:08;;;;;;;17.53;5.90;;;6.40;99.90;;;;;;5028285;28;20198;-78
2023/02/01 08:31:33;;;;;;;17.13;5.30;;;6.40;99.90;;;;;;5028391;28;20178;-78
2023/02/01 08:34:08;;;;;;;11.10;5.23;;;6.60;99.90;;;;;;5010657;28;20929;-78
2023/02/01 08:36:34;;;;;;;12.10;5.80;;;6.60;99.90;;;;;;5028474;28;20178;-78
2023/02/01 08:39:00;;;;;;;12.20;5.00;;;6.40;99.90;;;;;;5030753;28;20425;-79
2023/02/01 08:41:29;;;;;;;13.13;5.30;;;6.60;99.90;;;;;;5005900;28;20419;-78
2023/02/01 08:43:55;;;;;;;16.20;5.07;;;6.70;99.90;;;;;;5046399;28;20922;-78
2023/02/01 08:46:21;;;;;;;15.60;4.73;;;6.50;99.90;;;;;;5048322;28;20770;-78
2023/02/01 08:48:48;;;;;;;19.57;4.73;;;6.50;99.90;;;;;;5047955;28;20448;-78
2023/02/01 08:51:16;;;;;;;9.80;4.50;;;6.40;99.90;;;;;;5048176;28;20924;-79
2023/02/01 08:53:41;;;;;;;13.50;5.33;;;6.50;99.90;;;;;;5033556;28;20435;-79
2023/02/01 08:56:09;;;;;;;16.03;5.80;;;6.70;99.90;;;;;;5030309;28;20413;-78
2023/02/01 08:58:35;;;;;;;11.90;4.97;;;6.50;99.90;;;;;;5013928;28;20925;-79
2023/02/01 09:01:09;;;;;;;11.97;5.80;;;6.50;99.90;;;;;;5031140;28;20416;-79
2023/02/01 09:03:36;;;;;;;10.40;5.87;;;6.70;99.90;;;;;;5013830;28;20228;-79
2023/02/01 09:06:07;;;;;;;15.00;6.17;;;6.60;99.90;;;;;;5031840;28;20512;-77
2023/02/01 09:08:33;;;;;;;12.03;5.20;;;6.70;99.90;;;;;;5031576;28;20503;-79
2023/02/01 09:11:05;;;;;;;12.13;5.23;;;6.60;99.90;;;;;;5013920;28;20824;-78
2023/02/01 09:13:31;;;;;;;18.93;6.00;;;6.50;99.90;;;;;;5031553;28;20437;-79
2023/02/01 09:15:57;;;;;;;13.70;5.30;;;6.70;99.90;;;;;;5013867;28;20455;-78
2023/02/01 09:18:23;;;;;;;17.23;5.47;;;6.50;99.90;;;;;;5013639;28;20421;-78
2023/02/01 09:20:48;;;;;;;22.17;5.93;;;6.50;99.90;;;;;;5031348;28;20417;-79
2023/02/01 09:23:14;;;;;;;10.70;5.40;;;6.70;99.90;;;;;;5013761;28;20409;-78
2023/02/01 09:25:39;;;;;;;11.67;5.00;;;6.80;99.90;;;;;;5031460;28;20244;-78
2023/02/01 09:28:06;;;;;;;12.20;5.33;;;6.60;99.90;;;;;;5031924;28;20647;-79
2023/02/01 09:30:32;;;;;;;14.03;5.73;;;6.50;99.90;;;;;;5031548;28;20603;-79
2023/02/01 09:32:58;;;;;;;14.83;5.63;;;6.80;99.90;;;;;;5031429;28;20409;-77
2023/02/01 09:35:24;;;;;;;11.57;5.27;;;6.60;99.90;;;;;;5031274;28;20429;-77
2023/02/01 09:37:50;;;;;;;16.03;6.30;;;6.70;99.90;;;;;;4996824;28;20174;-78
2023/02/01 09:40:17;;;;;;;11.10;5.13;;;6.60;99.90;;;;;;5030963;28;20182;-78
2023/02/01 09:43:11;;;;;;;13.60;5.20;;;6.70;99.90;;;;;;5013326;28;20267;-79
2023/02/01 09:45:48;;;;;;;23.10;8.70;;;6.70;99.90;;;;;;5013311;28;21032;-78
2023/02/01 09:48:17;;;;;;;18.27;5.70;;;6.60;99.90;;;;;;5030794;28;20417;-78
2023/02/01 09:50:52;;;;;;;9.70;5.40;;;6.70;99.90;;;;;;5013072;28;20456;-78
2023/02/01 09:53:38;;;;;;;15.70;6.10;;;6.60;99.90;;;;;;5008097;28;20490;-78
2023/02/01 09:56:14;;;;;;;18.57;5.80;;;6.70;99.90;;;;;;4996910;28;20440;-78
2023/02/01 09:58:50;;;;;;;12.17;6.03;;;6.90;99.90;;;;;;5031125;28;20770;-78
2023/02/01 10:01:25;;;;;;;15.50;6.50;;;6.80;99.90;;;;;;4996195;28;20511;-78
2023/02/01 10:04:11;;;;;;;17.30;7.00;;;6.80;99.90;;;;;;5012816;28;20453;-78
2023/02/01 10:06:59;;;;;;;11.10;6.23;;;6.80;99.90;;;;;;5012083;28;20421;-78
2023/02/01 10:09:47;;;;;;;16.70;6.43;;;7.00;99.90;;;;;;5030560;28;20867;-79
2023/02/01 10:12:27;;;;;;;21.87;6.83;;;6.90;99.90;;;;;;5012445;28;20796;-79
2023/02/01 10:15:30;;;;;;;11.50;6.83;;;6.60;99.90;;;;;;5030406;28;20429;-79
2023/02/01 10:18:17;;;;;;;13.13;5.87;;;6.90;99.90;;;;;;5030299;28;20501;-78
2023/02/01 10:21:10;;;;;;;10.30;5.37;;;6.90;99.90;;;;;;5030638;28;20413;-78
2023/02/01 10:24:06;;;;;;;10.93;6.80;;;6.80;99.90;;;;;;5012323;28;20428;-78
2023/02/01 10:26:36;;;;;;;15.30;6.10;;;6.70;99.90;;;;;;5030377;28;20409;-78
2023/02/01 10:29:04;;;;;;;14.53;5.90;;;7.00;99.90;;;;;;5030331;28;20480;-79
2023/02/01 10:31:35;;;;;;;17.07;6.43;;;6.90;99.90;;;;;;5030074;28;20447;-79
2023/02/01 10:34:23;;;;;;;14.77;6.77;;;7.00;99.90;;;;;;5029910;28;20453;-78
2023/02/01 10:36:57;;;;;;;14.13;6.03;;;6.90;99.90;;;;;;5012190;28;20421;-78
2023/02/01 10:39:23;;;;;;;14.50;7.03;;;7.00;99.90;;;;;;5012088;28;20429;-78
2023/02/01 10:41:49;;;;;;;12.47;6.53;;;6.80;99.90;;;;;;5029715;28;20913;-79
2023/02/01 10:44:25;;;;;;;11.57;5.67;;;6.80;99.90;;;;;;5029759;28;20440;-78
2023/02/01 10:46:51;;;;;;;17.37;6.30;;;6.90;99.90;;;;;;5029856;28;20193;-79
2023/02/01 10:49:32;;;;;;;10.57;5.50;;;6.70;99.90;;;;;;5012193;28;20542;-78
2023/02/01 10:51:59;;;;;;;15.83;6.03;;;6.80;99.90;;;;;;5029863;28;20910;-78
2023/02/01 10:54:34;;;;;;;12.33;6.17;;;6.80;99.90;;;;;;5006971;28;21151;-77
2023/02/01 10:57:00;;;;;;;16.43;6.90;;;7.10;99.90;;;;;;5029507;28;20922;-78
2023/02/01 10:59:29;;;;;;;14.37;5.70;;;6.80;99.90;;;;;;5029625;28;20416;-78
2023/02/01 11:02:01;;;;;;;14.93;4.90;;;6.90;99.90;;;;;;5012115;28;20253;-79
2023/02/01 11:04:33;;;;;;;11.40;5.27;;;7.00;99.90;;;;;;5029343;28;20476;-78
2023/02/01 11:07:23;;;;;;;11.90;5.60;;;6.90;99.90;;;;;;5011920;28;20510;-78
2023/02/01 11:09:51;;;;;;;8.43;4.70;;;7.00;99.90;;;;;;5011569;28;20501;-78
2023/02/01 11:12:37;;;;;;;14.83;6.57;;;7.10;99.90;;;;;;5029406;28;20409;-78
2023/02/01 11:15:11;;;;;;;10.40;5.43;;;7.00;99.90;;;;;;5011474;28;20499;-78
2023/02/01 11:17:42;;;;;;;12.10;6.03;;;7.10;99.90;;;;;;5029029;28;20414;-78
2023/02/01 11:20:41;;;;;;;13.13;5.63;;;7.10;99.90;;;;;;5029407;28;20861;-78
2023/02/01 11:23:15;;;;;;;12.67;5.60;;;7.10;99.90;;;;;;4986230;28;20444;-77
2023/02/01 11:25:59;;;;;;;13.73;5.83;;;7.00;99.90;;;;;;5033391;28;20436;-78
2023/02/01 11:28:35;;;;;;;15.10;6.37;;;7.10;99.90;;;;;;5033162;28;20416;-78
2023/02/01 11:31:04;;;;;;;12.20;5.07;;;7.10;99.90;;;;;;5033732;28;20417;-78
2023/02/01 11:33:34;;;;;;;12.33;5.30;;;6.90;99.90;;;;;;5014908;28;20421;-78
2023/02/01 11:36:08;;;;;;;13.13;5.50;;;7.00;99.90;;;;;;4999650;28;20453;-79
2023/02/01 11:38:34;;;;;;;13.27;5.10;;;7.10;99.90;;;;;;5015078;28;20425;-78
2023/02/01 11:41:25;;;;;;;11.23;5.60;;;6.90;99.90;;;;;;5015955;28;20420;-77
2023/02/01 11:43:58;;;;;;;11.90;5.53;;;7.00;99.90;;;;;;5015419;28;21163;-79
2023/02/01 11:46:32;;;;;;;15.30;6.73;;;7.00;99.90;;;;;;5033361;28;20413;-78
2023/02/01 11:49:20;;;;;;;10.27;5.83;;;7.00;99.90;;;;;;5033038;28;20475;-78
2023/02/01 11:52:01;;;;;;;13.10;5.40;;;7.20;99.90;;;;;;5033372;28;20464;-77
2023/02/01 11:54:44;;;;;;;16.27;6.07;;;7.10;99.90;;;;;;5028385;28;20441;-79
2023/02/01 11:57:10;;;;;;;15.33;5.73;;;7.10;99.90;;;;;;5033005;28;20531;-77
2023/02/01 12:00:10;;;;;;;16.40;6.07;;;7.20;99.90;;;;;;5032256;28;20417;-79
2023/02/01 12:02:39;;;;;;;11.37;5.10;;;7.20;99.90;;;;;;5012928;28;20196;-78
2023/02/01 12:05:30;;;;;;;10.50;5.23;;;7.00;99.90;;;;;;5032839;28;20449;-78
2023/02/01 12:08:14;;;;;;;13.03;5.27;;;7.00;99.90;;;;;;5033006;28;20415;-79
2023/02/01 12:10:52;;;;;;;16.00;6.93;;;7.10;99.90;;;;;;5015268;28;21028;-79
2023/02/01 12:13:39;;;;;;;10.13;5.47;;;7.10;99.90;;;;;;5015492;28;20889;-79
2023/02/01 12:16:25;;;;;;;15.67;5.70;;;7.10;99.90;;;;;;5033503;28;20772;-78
2023/02/01 12:19:06;;;;;;;16.07;6.73;;;7.10;99.90;;;;;;5033078;28;20456;-79
2023/02/01 12:21:37;;;;;;;11.90;5.60;;;6.90;99.90;;;;;;5033669;28;20991;-77
2023/02/01 12:24:50;;;;;;;10.67;5.57;;;7.20;99.90;;;;;;5015211;28;20440;-78
2023/02/01 12:27:31;;;;;;;13.70;5.60;;;7.00;99.90;;;;;;4952604;28;20439;-79
2023/02/01 12:30:08;;;;;;;11.00;5.33;;;7.10;99.90;;;;;;4952721;28;20468;-78
2023/02/01 12:33:03;;;;;;;13.80;6.00;;;7.00;99.90;;;;;;5008259;28;20417;-78
2023/02/01 12:35:53;;;;;;;14.63;5.80;;;6.90;99.90;;;;;;5036975;28;20437;-79
2023/02/01 12:38:40;;;;;;;10.80;5.40;;;6.90;99.90;;;;;;5019318;28;20405;-79
2023/02/01 12:41:24;;;;;;;14.60;6.07;;;7.00;99.90;;;;;;5037493;28;20502;-78
2023/02/01 12:44:31;;;;;;;9.43;5.67;;;6.90;99.90;;;;;;5037184;28;20409;-79
2023/02/01 12:47:12;;;;;;;16.03;6.50;;;7.10;99.90;;;;;;5002698;28;20413;-79
2023/02/01 12:49:50;;;;;;;13.20;5.60;;;6.90;99.90;;;;;;5019257;28;20456;-76
2023/02/01 12:52:24;;;;;;;14.00;5.57;;;7.00;99.90;;;;;;5018825;28;20440;-79
2023/02/01 12:55:01;;;;;;;10.67;4.93;;;6.90;99.90;;;;;;5017221;28;21035;-77
2023/02/01 12:57:37;;;;;;;16.50;6.00;;;7.10;99.90;;;;;;5018988;28;20478;-78
2023/02/01 13:00:21;;;;;;;16.63;5.57;;;7.10;99.90;;;;;;5036065;28;20512;-81
2023/02/01 13:03:03;;;;;;;10.37;4.73;;;6.80;99.90;;;;;;5037150;28;20425;-79
2023/02/01 13:05:46;;;;;;;16.80;4.67;;;7.10;99.90;;;;;;5036804;28;20832;-79
2023/02/01 13:08:17;;;;;;;9.00;4.63;;;7.10;99.90;;;;;;5029690;28;20421;-79
2023/02/01 13:11:04;;;;;;;17.10;5.13;;;7.00;99.90;;;;;;5018717;28;20468;-79
2023/02/01 13:14:03;;;;;;;8.77;4.27;;;7.00;99.90;;;;;;5036639;28;20743;-79
2023/02/01 13:16:34;;;;;;;12.90;4.77;;;7.00;99.90;;;;;;5003445;28;20417;-77
2023/02/01 13:19:13;;;;;;;8.60;4.17;;;7.10;99.90;;;;;;5036360;28;20413;-79
2023/02/01 13:21:46;;;;;;;10.23;4.77;;;7.00;99.90;;;;;;5018937;28;20413;-79
2023/02/01 13:24:30;;;;;;;11.90;3.87;;;7.00;99.90;;;;;;5036746;28;20440;-79
2023/02/01 13:26:56;;;;;;;6.63;3.77;;;7.00;99.90;;;;;;5037025;28;20520;-79
2023/02/01 13:29:24;;;;;;;17.47;4.03;;;6.90;99.90;;;;;;5036428;28;20484;-79